sensor_id;sensor_type;location;lat;lon;timestamp;pressure;altitude;pressure_sealevel;temperature;humidity
39897;BME280;25567;48.276;14.242;2022-10-15T00:00:38;98125.88;;;12.00;100.00
39897;BME280;25567;48.276;14.242;2022-10-15T00:03:05;98123.47;;;11.99;100.00
39897;BME280;25567;48.276;14.242;2022-10-15T00:05:32;98130.88;;;11.97;100.00
39897;BME280;25567;48.276;14.242;2022-10-15T00:07:58;98123.69;;;11.97;100.00
39897;BME280;25567;48.276;14.242;2022-10-15T00:10:25;98124.25;;;11.99;100.00
39897;BME280;25567;48.276;14.242;2022-10-15T00:12:51;98122.66;;;11.98;100.00
39897;BME280;25567;48.276;14.242;2022-10-15T00:15:18;98120.25;;;11.97;100.00
39897;BME280;25567;48.276;14.242;2022-10-15T00:17:45;98119.44;;;11.96;100.00
39897;BME280;25567;48.276;14.242;2022-10-15T00:20:12;98119.44;;;11.96;100.00
39897;BME280;25567;48.276;14.242;2022-10-15T00:22:38;98115.41;;;11.94;100.00
39897;BME280;25567;48.276;14.242;2022-10-15T00:25:06;98114.94;;;11.97;100.00
39897;BME280;25567;48.276;14.242;2022-10-15T00:27:34;98112.53;;;11.95;100.00
39897;BME280;25567;48.276;14.242;2022-10-15T00:30:01;98112.53;;;11.95;100.00
39897;BME280;25567;48.276;14.242;2022-10-15T00:32:29;98117.59;;;11.97;100.00
39897;BME280;25567;48.276;14.242;2022-10-15T00:34:56;98113.06;;;11.97;100.00
39897;BME280;25567;48.276;14.242;2022-10-15T00:37:23;98111.69;;;11.95;100.00
39897;BME280;25567;48.276;14.242;2022-10-15T00:39:50;98109.25;;;11.93;100.00
39897;BME280;25567;48.276;14.242;2022-10-15T00:42:16;98110.25;;;11.87;100.00
39897;BME280;25567;48.276;14.242;2022-10-15T00:44:49;98103.59;;;11.84;100.00
39897;BME280;25567;48.276;14.242;2022-10-15T00:47:22;98097.69;;;11.82;100.00
39897;BME280;25567;48.276;14.242;2022-10-15T00:50:02;98099.06;;;11.85;100.00
39897;BME280;25567;48.276;14.242;2022-10-15T00:52:40;98091.09;;;11.85;100.00
39897;BME280;25567;48.276;14.242;2022-10-15T00:55:14;98091.09;;;11.85;100.00
39897;BME280;25567;48.276;14.242;2022-10-15T00:57:42;98088.19;;;11.87;100.00
39897;BME280;25567;48.276;14.242;2022-10-15T01:00:12;98089.22;;;11.85;100.00
39897;BME280;25567;48.276;14.242;2022-10-15T01:02:42;98089.00;;;11.87;100.00
39897;BME280;25567;48.276;14.242;2022-10-15T01:05:10;98076.75;;;11.86;100.00
39897;BME280;25567;48.276;14.242;2022-10-15T01:07:40;98077.81;;;11.85;100.00
39897;BME280;25567;48.276;14.242;2022-10-15T01:10:08;98071.44;;;11.86;100.00
39897;BME280;25567;48.276;14.242;2022-10-15T01:17:47;98061.84;;;11.85;100.00
39897;BME280;25567;48.276;14.242;2022-10-15T01:30:57;98036.91;;;11.86;100.00
39897;BME280;25567;48.276;14.242;2022-10-15T01:41:19;98018.81;;;11.83;100.00
39897;BME280;25567;48.276;14.242;2022-10-15T01:43:57;98023.03;;;11.84;100.00
39897;BME280;25567;48.276;14.242;2022-10-15T01:46:34;98020.09;;;11.80;100.00
39897;BME280;25567;48.276;14.242;2022-10-15T01:49:05;98019.78;;;11.77;100.00
39897;BME280;25567;48.276;14.242;2022-10-15T01:51:35;98025.59;;;11.74;100.00
39897;BME280;25567;48.276;14.242;2022-10-15T01:54:06;98014.97;;;11.74;100.00
39897;BME280;25567;48.276;14.242;2022-10-15T01:56:36;98017.06;;;11.72;100.00
39897;BME280;25567;48.276;14.242;2022-10-15T01:59:04;98007.16;;;11.67;100.00
39897;BME280;25567;48.276;14.242;2022-10-15T02:01:31;98014.91;;;11.68;100.00
39897;BME280;25567;48.276;14.242;2022-10-15T02:03:58;98014.97;;;11.74;100.00
39897;BME280;25567;48.276;14.242;2022-10-15T02:06:33;98000.06;;;11.73;100.00
39897;BME280;25567;48.276;14.242;2022-10-15T02:09:26;97998.72;;;11.70;100.00
39897;BME280;25567;48.276;14.242;2022-10-15T02:11:59;97997.41;;;11.73;100.00
39897;BME280;25567;48.276;14.242;2022-10-15T02:14:36;98003.28;;;11.75;100.00
39897;BME280;25567;48.276;14.242;2022-10-15T02:17:08;97992.56;;;11.69;100.00
39897;BME280;25567;48.276;14.242;2022-10-15T02:19:41;97992.81;;;11.68;100.00
39897;BME280;25567;48.276;14.242;2022-10-15T02:22:21;97990.66;;;11.65;100.00
39897;BME280;25567;48.276;14.242;2022-10-15T02:24:55;97982.44;;;11.66;100.00
39897;BME280;25567;48.276;14.242;2022-10-15T02:27:25;97989.38;;;11.67;100.00
39897;BME280;25567;48.276;14.242;2022-10-15T02:29:54;97995.72;;;11.66;100.00
39897;BME280;25567;48.276;14.242;2022-10-15T02:32:23;97997.84;;;11.64;100.00
39897;BME280;25567;48.276;14.242;2022-10-15T02:34:52;97990.91;;;11.63;100.00
39897;BME280;25567;48.276;14.242;2022-10-15T02:37:21;97989.06;;;11.64;100.00
39897;BME280;25567;48.276;14.242;2022-10-15T02:39:48;97987.22;;;11.64;100.00
39897;BME280;25567;48.276;14.242;2022-10-15T02:42:16;97982.94;;;11.63;100.00
39897;BME280;25567;48.276;14.242;2022-10-15T02:44:44;97980.78;;;11.60;100.00
39897;BME280;25567;48.276;14.242;2022-10-15T02:47:11;97975.72;;;11.59;100.00
39897;BME280;25567;48.276;14.242;2022-10-15T02:49:38;97970.97;;;11.61;100.00
39897;BME280;25567;48.276;14.242;2022-10-15T02:52:05;97971.44;;;11.58;100.00
39897;BME280;25567;48.276;14.242;2022-10-15T02:54:31;97968.06;;;11.62;100.00
39897;BME280;25567;48.276;14.242;2022-10-15T02:56:58;97967.28;;;11.62;100.00
39897;BME280;25567;48.276;14.242;2022-10-15T02:59:25;97961.38;;;11.60;100.00
39897;BME280;25567;48.276;14.242;2022-10-15T03:01:51;97960.59;;;11.59;100.00
39897;BME280;25567;48.276;14.242;2022-10-15T03:04:18;97951.25;;;11.57;100.00
39897;BME280;25567;48.276;14.242;2022-10-15T03:06:45;97952.06;;;11.57;100.00
39897;BME280;25567;48.276;14.242;2022-10-15T03:09:11;97948.59;;;11.57;100.00
39897;BME280;25567;48.276;14.242;2022-10-15T03:11:38;97949.41;;;11.57;100.00
39897;BME280;25567;48.276;14.242;2022-10-15T03:14:05;97945.94;;;11.57;100.00
39897;BME280;25567;48.276;14.242;2022-10-15T03:16:32;97942.47;;;11.56;100.00
39897;BME280;25567;48.276;14.242;2022-10-15T03:18:58;97945.69;;;11.58;100.00
39897;BME280;25567;48.276;14.242;2022-10-15T03:21:25;97949.16;;;11.59;100.00
39897;BME280;25567;48.276;14.242;2022-10-15T03:23:54;97944.88;;;11.58;100.00
39897;BME280;25567;48.276;14.242;2022-10-15T03:26:20;97952.84;;;11.58;100.00
39897;BME280;25567;48.276;14.242;2022-10-15T03:28:47;97949.41;;;11.57;100.00
39897;BME280;25567;48.276;14.242;2022-10-15T03:31:13;97957.38;;;11.57;100.00
39897;BME280;25567;48.276;14.242;2022-10-15T03:33:40;97951.00;;;11.58;100.00
39897;BME280;25567;48.276;14.242;2022-10-15T03:36:07;97952.56;;;11.54;100.00
39897;BME280;25567;48.276;14.242;2022-10-15T03:38:34;97949.34;;;11.52;100.00
39897;BME280;25567;48.276;14.242;2022-10-15T03:41:01;97949.59;;;11.50;100.00
39897;BME280;25567;48.276;14.242;2022-10-15T03:43:27;97953.34;;;11.55;100.00
39897;BME280;25567;48.276;14.242;2022-10-15T03:45:54;97950.38;;;11.51;100.00
39897;BME280;25567;48.276;14.242;2022-10-15T03:48:21;97947.25;;;11.54;100.00
39897;BME280;25567;48.276;14.242;2022-10-15T03:50:48;97948.03;;;11.55;100.00
39897;BME280;25567;48.276;14.242;2022-10-15T03:53:14;97945.94;;;11.57;100.00
39897;BME280;25567;48.276;14.242;2022-10-15T03:55:41;97953.34;;;11.55;100.00
39897;BME280;25567;48.276;14.242;2022-10-15T03:58:07;97950.44;;;11.56;100.00
39897;BME280;25567;48.276;14.242;2022-10-15T04:00:34;97952.06;;;11.57;100.00
39897;BME280;25567;48.276;14.242;2022-10-15T04:03:01;97946.75;;;11.57;100.00
39897;BME280;25567;48.276;14.242;2022-10-15T04:05:27;97952.84;;;11.58;100.00
39897;BME280;25567;48.276;14.242;2022-10-15T04:07:55;97958.16;;;11.58;100.00
39897;BME280;25567;48.276;14.242;2022-10-15T04:10:22;97967.66;;;11.54;100.00
39897;BME280;25567;48.276;14.242;2022-10-15T04:12:48;97974.06;;;11.52;100.00
39897;BME280;25567;48.276;14.242;2022-10-15T04:15:15;97973.50;;;11.50;100.00
39897;BME280;25567;48.276;14.242;2022-10-15T04:17:42;97975.91;;;11.52;100.00
39897;BME280;25567;48.276;14.242;2022-10-15T04:20:09;97979.59;;;11.51;100.00
39897;BME280;25567;48.276;14.242;2022-10-15T04:22:36;97978.81;;;11.50;100.00
39897;BME280;25567;48.276;14.242;2022-10-15T04:25:03;97977.19;;;11.49;100.00
39897;BME280;25567;48.276;14.242;2022-10-15T04:27:30;97970.25;;;11.48;100.00
39897;BME280;25567;48.276;14.242;2022-10-15T04:29:57;97975.56;;;11.48;100.00
39897;BME280;25567;48.276;14.242;2022-10-15T04:32:24;97981.38;;;11.45;100.00
39897;BME280;25567;48.276;14.242;2022-10-15T04:34:51;97977.94;;;11.45;100.00
39897;BME280;25567;48.276;14.242;2022-10-15T04:37:17;97979.56;;;11.46;100.00
39897;BME280;25567;48.276;14.242;2022-10-15T04:39:44;97975.75;;;11.42;100.00
39897;BME280;25567;48.276;14.242;2022-10-15T04:42:10;97977.03;;;11.39;100.00
39897;BME280;25567;48.276;14.242;2022-10-15T04:44:37;97985.84;;;11.40;100.00
39897;BME280;25567;48.276;14.242;2022-10-15T04:47:04;97980.44;;;11.34;100.00
39897;BME280;25567;48.276;14.242;2022-10-15T04:49:30;97984.78;;;11.41;100.00
39897;BME280;25567;48.276;14.242;2022-10-15T04:51:57;97978.97;;;11.44;100.00
39897;BME280;25567;48.276;14.242;2022-10-15T04:54:24;97975.75;;;11.42;100.00
39897;BME280;25567;48.276;14.242;2022-10-15T04:56:50;97976.91;;;11.46;100.00
39897;BME280;25567;48.276;14.242;2022-10-15T04:59:17;97967.31;;;11.45;100.00
39897;BME280;25567;48.276;14.242;2022-10-15T05:01:44;97971.59;;;11.46;100.00
39897;BME280;25567;48.276;14.242;2022-10-15T05:04:10;97966.50;;;11.44;100.00
39897;BME280;25567;48.276;14.242;2022-10-15T05:06:37;97970.50;;;11.47;100.00
39897;BME280;25567;48.276;14.242;2022-10-15T05:09:07;97965.19;;;11.47;100.00
39897;BME280;25567;48.276;14.242;2022-10-15T05:11:35;97973.66;;;11.44;100.00
39897;BME280;25567;48.276;14.242;2022-10-15T05:14:04;97971.59;;;11.46;100.00
39897;BME280;25567;48.276;14.242;2022-10-15T05:16:31;97971.59;;;11.46;100.00
39897;BME280;25567;48.276;14.242;2022-10-15T05:19:02;97963.63;;;11.46;100.00
39897;BME280;25567;48.276;14.242;2022-10-15T05:21:31;97972.38;;;11.46;100.00
39897;BME280;25567;48.276;14.242;2022-10-15T05:24:01;97984.63;;;11.47;100.00
39897;BME280;25567;48.276;14.242;2022-10-15T05:26:31;97983.25;;;11.45;100.00
39897;BME280;25567;48.276;14.242;2022-10-15T05:28:58;97981.63;;;11.44;100.00
39897;BME280;25567;48.276;14.242;2022-10-15T05:31:28;97986.44;;;11.47;100.00
39897;BME280;25567;48.276;14.242;2022-10-15T05:33:55;97991.50;;;11.48;100.00
39897;BME280;25567;48.276;14.242;2022-10-15T05:36:26;97984.63;;;11.47;100.00
39897;BME280;25567;48.276;14.242;2022-10-15T05:38:55;97978.22;;;11.48;100.00
39897;BME280;25567;48.276;14.242;2022-10-15T05:41:23;97985.09;;;11.44;100.00
39897;BME280;25567;48.276;14.242;2022-10-15T05:43:52;97991.22;;;11.45;100.00
39897;BME280;25567;48.276;14.242;2022-10-15T05:46:20;97993.94;;;11.50;100.00
39897;BME280;25567;48.276;14.242;2022-10-15T05:48:48;97997.63;;;11.49;100.00
39897;BME280;25567;48.276;14.242;2022-10-15T05:51:15;97993.94;;;11.50;100.00
39897;BME280;25567;48.276;14.242;2022-10-15T05:53:42;97996.59;;;11.50;100.00
39897;BME280;25567;48.276;14.242;2022-10-15T05:56:12;98000.28;;;11.49;100.00
39897;BME280;25567;48.276;14.242;2022-10-15T05:58:39;97995.78;;;11.49;100.00
39897;BME280;25567;48.276;14.242;2022-10-15T06:01:08;97995.53;;;11.51;100.00
39897;BME280;25567;48.276;14.242;2022-10-15T06:03:37;97992.84;;;11.46;100.00
39897;BME280;25567;48.276;14.242;2022-10-15T06:06:04;97998.44;;;11.49;100.00
39897;BME280;25567;48.276;14.242;2022-10-15T06:08:38;98002.94;;;11.49;100.00
39897;BME280;25567;48.276;14.242;2022-10-15T06:11:04;98010.09;;;11.48;100.00
39897;BME280;25567;48.276;14.242;2022-10-15T06:13:37;98016.72;;;11.46;100.00
39897;BME280;25567;48.276;14.242;2022-10-15T06:16:04;98014.53;;;11.43;100.00
39897;BME280;25567;48.276;14.242;2022-10-15T06:18:31;98020.69;;;11.43;100.00
39897;BME280;25567;48.276;14.242;2022-10-15T06:20:57;98016.66;;;11.41;100.00
39897;BME280;25567;48.276;14.242;2022-10-15T06:23:24;98016.41;;;11.42;100.00
39897;BME280;25567;48.276;14.242;2022-10-15T06:25:51;98019.84;;;11.43;100.00
39897;BME280;25567;48.276;14.242;2022-10-15T06:28:17;98023.88;;;11.45;100.00
39897;BME280;25567;48.276;14.242;2022-10-15T06:30:44;98026.84;;;11.49;100.00
39897;BME280;25567;48.276;14.242;2022-10-15T06:33:11;98022.59;;;11.48;100.00
39897;BME280;25567;48.276;14.242;2022-10-15T06:35:38;98025.25;;;11.48;100.00
39897;BME280;25567;48.276;14.242;2022-10-15T06:38:06;98024.75;;;11.51;100.00
39897;BME280;25567;48.276;14.242;2022-10-15T06:40:33;98013.06;;;11.52;100.00
39897;BME280;25567;48.276;14.242;2022-10-15T06:43:07;98016.78;;;11.51;100.00
39897;BME280;25567;48.276;14.242;2022-10-15T06:45:36;98020.25;;;11.51;100.00
39897;BME280;25567;48.276;14.242;2022-10-15T06:48:05;98025.94;;;11.60;100.00
39897;BME280;25567;48.276;14.242;2022-10-15T06:50:35;98024.56;;;11.58;100.00
39897;BME280;25567;48.276;14.242;2022-10-15T06:53:02;98031.41;;;11.54;100.00
39897;BME280;25567;48.276;14.242;2022-10-15T06:55:29;98036.44;;;11.50;100.00
39897;BME280;25567;48.276;14.242;2022-10-15T06:57:56;98047.59;;;11.52;100.00
39897;BME280;25567;48.276;14.242;2022-10-15T07:00:24;98033.78;;;11.50;100.00
39897;BME280;25567;48.276;14.242;2022-10-15T07:02:51;98034.91;;;11.54;100.00
39897;BME280;25567;48.276;14.242;2022-10-15T07:05:18;98039.72;;;11.57;100.00
39897;BME280;25567;48.276;14.242;2022-10-15T07:07:53;98037.56;;;11.54;100.00
39897;BME280;25567;48.276;14.242;2022-10-15T07:10:21;98042.88;;;11.54;100.00
39897;BME280;25567;48.276;14.242;2022-10-15T07:12:48;98045.28;;;11.56;100.00
39897;BME280;25567;48.276;14.242;2022-10-15T07:15:15;98042.88;;;11.54;100.00
39897;BME280;25567;48.276;14.242;2022-10-15T07:17:50;98046.06;;;11.56;100.00
39897;BME280;25567;48.276;14.242;2022-10-15T07:20:19;98052.19;;;11.57;100.00
39897;BME280;25567;48.276;14.242;2022-10-15T07:22:50;98049.78;;;11.55;100.00
39897;BME280;25567;48.276;14.242;2022-10-15T07:25:21;98051.38;;;11.56;100.00
39897;BME280;25567;48.276;14.242;2022-10-15T07:27:47;98046.06;;;11.56;100.00
39897;BME280;25567;48.276;14.242;2022-10-15T07:30:14;98050.34;;;11.57;100.00
39897;BME280;25567;48.276;14.242;2022-10-15T07:32:41;98054.03;;;11.56;100.00
39897;BME280;25567;48.276;14.242;2022-10-15T07:35:12;98051.63;;;11.55;100.00
39897;BME280;25567;48.276;14.242;2022-10-15T07:37:39;98050.56;;;11.56;100.00
39897;BME280;25567;48.276;14.242;2022-10-15T07:40:06;98056.16;;;11.54;100.00
39897;BME280;25567;48.276;14.242;2022-10-15T07:42:33;98056.16;;;11.54;100.00
39897;BME280;25567;48.276;14.242;2022-10-15T07:45:00;98064.09;;;11.54;100.00
39897;BME280;25567;48.276;14.242;2022-10-15T07:47:26;98050.81;;;11.54;100.00
39897;BME280;25567;48.276;14.242;2022-10-15T07:49:53;98048.16;;;11.54;100.00
39897;BME280;25567;48.276;14.242;2022-10-15T07:52:20;98058.78;;;11.54;100.00
39897;BME280;25567;48.276;14.242;2022-10-15T07:54:47;98054.28;;;11.55;100.00
39897;BME280;25567;48.276;14.242;2022-10-15T07:57:14;98051.06;;;11.52;100.00
39897;BME280;25567;48.276;14.242;2022-10-15T07:59:41;98045.28;;;11.56;100.00
39897;BME280;25567;48.276;14.242;2022-10-15T08:02:16;98054.84;;;11.57;100.00
39897;BME280;25567;48.276;14.242;2022-10-15T08:04:43;98047.13;;;11.55;100.00
39897;BME280;25567;48.276;14.242;2022-10-15T08:07:10;98051.63;;;11.55;100.00
39897;BME280;25567;48.276;14.242;2022-10-15T08:09:37;98053.47;;;11.54;100.00
39897;BME280;25567;48.276;14.242;2022-10-15T08:12:04;98053.22;;;11.56;100.00
39897;BME280;25567;48.276;14.242;2022-10-15T08:14:33;98057.75;;;11.55;100.00
39897;BME280;25567;48.276;14.242;2022-10-15T08:17:02;98053.47;;;11.54;100.00
39897;BME280;25567;48.276;14.242;2022-10-15T08:19:29;98049.78;;;11.55;100.00
39897;BME280;25567;48.276;14.242;2022-10-15T08:21:56;98048.97;;;11.55;100.00
39897;BME280;25567;48.276;14.242;2022-10-15T08:24:23;98054.28;;;11.55;100.00
39897;BME280;25567;48.276;14.242;2022-10-15T08:26:50;98053.47;;;11.54;100.00
39897;BME280;25567;48.276;14.242;2022-10-15T08:29:17;98045.28;;;11.56;100.00
39897;BME280;25567;48.276;14.242;2022-10-15T08:31:43;98048.47;;;11.58;100.00
39897;BME280;25567;48.276;14.242;2022-10-15T08:34:10;98065.31;;;11.63;100.00
39897;BME280;25567;48.276;14.242;2022-10-15T08:36:36;98067.63;;;11.60;100.00
39897;BME280;25567;48.276;14.242;2022-10-15T08:39:03;98054.59;;;11.58;100.00
39897;BME280;25567;48.276;14.242;2022-10-15T08:44:00;98060.00;;;11.63;100.00
39897;BME280;25567;48.276;14.242;2022-10-15T08:46:35;98064.47;;;11.63;100.00
39897;BME280;25567;48.276;14.242;2022-10-15T08:49:04;98067.13;;;11.63;100.00
39897;BME280;25567;48.276;14.242;2022-10-15T08:51:38;98064.72;;;11.61;100.00
39897;BME280;25567;48.276;14.242;2022-10-15T08:54:12;98065.31;;;11.63;100.00
39897;BME280;25567;48.276;14.242;2022-10-15T08:56:44;98069.31;;;11.66;100.00
39897;BME280;25567;48.276;14.242;2022-10-15T08:59:30;98076.22;;;11.67;100.00
39897;BME280;25567;48.276;14.242;2022-10-15T09:02:10;98074.38;;;11.67;100.00
39897;BME280;25567;48.276;14.242;2022-10-15T09:04:53;98075.75;;;11.70;100.00
39897;BME280;25567;48.276;14.242;2022-10-15T09:07:39;98080.56;;;11.73;100.00
39897;BME280;25567;48.276;14.242;2022-10-15T09:12:52;98084.59;;;11.76;100.00
39897;BME280;25567;48.276;14.242;2022-10-15T09:15:24;98085.63;;;11.75;100.00
39897;BME280;25567;48.276;14.242;2022-10-15T09:17:54;98089.91;;;11.76;100.00
39897;BME280;25567;48.276;14.242;2022-10-15T09:20:25;98089.91;;;11.76;100.00
39897;BME280;25567;48.276;14.242;2022-10-15T09:22:56;98088.28;;;11.75;100.00
39897;BME280;25567;48.276;14.242;2022-10-15T09:25:32;98094.41;;;11.75;100.00
39897;BME280;25567;48.276;14.242;2022-10-15T09:28:08;98094.16;;;11.77;100.00
39897;BME280;25567;48.276;14.242;2022-10-15T09:35:52;98101.66;;;11.80;100.00
39897;BME280;25567;48.276;14.242;2022-10-15T09:38:30;98099.00;;;11.80;100.00
39897;BME280;25567;48.276;14.242;2022-10-15T09:43:45;98107.53;;;11.82;100.00
39897;BME280;25567;48.276;14.242;2022-10-15T09:46:13;98106.50;;;11.83;100.00
39897;BME280;25567;48.276;14.242;2022-10-15T09:48:46;98105.41;;;11.84;100.00
39897;BME280;25567;48.276;14.242;2022-10-15T09:51:24;98109.69;;;11.85;100.00
39897;BME280;25567;48.276;14.242;2022-10-15T09:54:02;98112.34;;;11.85;100.00
39897;BME280;25567;48.276;14.242;2022-10-15T09:56:45;98113.13;;;11.85;100.00
39897;BME280;25567;48.276;14.242;2022-10-15T09:59:15;98112.09;;;11.87;100.00
39897;BME280;25567;48.276;14.242;2022-10-15T10:01:59;98115.31;;;11.89;100.00
39897;BME280;25567;48.276;14.242;2022-10-15T10:04:30;98112.41;;;11.90;100.00
39897;BME280;25567;48.276;14.242;2022-10-15T10:07:00;98121.19;;;11.91;100.00
39897;BME280;25567;48.276;14.242;2022-10-15T10:09:32;98128.91;;;11.92;100.00
39897;BME280;25567;48.276;14.242;2022-10-15T10:12:01;98123.38;;;11.94;100.00
39897;BME280;25567;48.276;14.242;2022-10-15T10:14:33;98131.66;;;11.97;100.00
39897;BME280;25567;48.276;14.242;2022-10-15T10:19:45;98122.91;;;11.97;100.00
39897;BME280;25567;48.276;14.242;2022-10-15T10:22:27;98130.38;;;12.00;100.00
39897;BME280;25567;48.276;14.242;2022-10-15T10:24:54;98129.59;;;11.99;100.00
39897;BME280;25567;48.276;14.242;2022-10-15T10:27:23;98133.03;;;12.00;100.00
39897;BME280;25567;48.276;14.242;2022-10-15T10:29:57;98135.69;;;12.00;100.00
39897;BME280;25567;48.276;14.242;2022-10-15T10:32:28;98140.81;;;12.07;100.00
39897;BME280;25567;48.276;14.242;2022-10-15T10:34:57;98138.16;;;12.07;100.00
39897;BME280;25567;48.276;14.242;2022-10-15T10:37:24;98131.81;;;12.08;100.00
39897;BME280;25567;48.276;14.242;2022-10-15T10:39:57;98132.84;;;12.07;100.00
39897;BME280;25567;48.276;14.242;2022-10-15T10:42:27;98135.50;;;12.07;100.00
39897;BME280;25567;48.276;14.242;2022-10-15T10:47:48;98141.41;;;12.09;100.00
39897;BME280;25567;48.276;14.242;2022-10-15T10:50:32;98146.22;;;12.12;100.00
39897;BME280;25567;48.276;14.242;2022-10-15T10:53:20;98144.13;;;12.14;100.00
39897;BME280;25567;48.276;14.242;2022-10-15T10:55:48;98149.44;;;12.14;100.00
39897;BME280;25567;48.276;14.242;2022-10-15T10:58:19;98144.44;;;12.17;100.00
39897;BME280;25567;48.276;14.242;2022-10-15T11:00:52;98134.59;;;12.18;100.00
39897;BME280;25567;48.276;14.242;2022-10-15T11:03:36;98153.22;;;12.18;100.00
39897;BME280;25567;48.276;14.242;2022-10-15T11:06:36;98141.59;;;12.24;100.00
39897;BME280;25567;48.276;14.242;2022-10-15T11:09:19;98145.06;;;12.25;100.00
39897;BME280;25567;48.276;14.242;2022-10-15T11:12:23;98147.72;;;12.25;100.00
39897;BME280;25567;48.276;14.242;2022-10-15T11:15:16;98149.59;;;12.24;100.00
39897;BME280;25567;48.276;14.242;2022-10-15T11:17:53;98141.16;;;12.32;100.00
39897;BME280;25567;48.276;14.242;2022-10-15T11:20:44;98138.50;;;12.32;100.00
39897;BME280;25567;48.276;14.242;2022-10-15T11:23:32;98149.63;;;12.29;100.00
39897;BME280;25567;48.276;14.242;2022-10-15T11:28:55;98141.97;;;12.55;100.00
39897;BME280;25567;48.276;14.242;2022-10-15T11:31:41;98152.03;;;12.53;100.00
39897;BME280;25567;48.276;14.242;2022-10-15T11:42:54;98150.31;;;12.42;100.00
39897;BME280;25567;48.276;14.242;2022-10-15T11:47:53;98139.75;;;12.47;100.00
39897;BME280;25567;48.276;14.242;2022-10-15T12:04:13;98138.31;;;12.61;100.00
39897;BME280;25567;48.276;14.242;2022-10-15T12:06:46;98133.00;;;12.61;100.00
39897;BME280;25567;48.276;14.242;2022-10-15T12:09:22;98139.38;;;12.60;100.00
39897;BME280;25567;48.276;14.242;2022-10-15T12:12:02;98149.00;;;12.66;100.00
39897;BME280;25567;48.276;14.242;2022-10-15T12:14:40;98140.72;;;12.63;100.00
39897;BME280;25567;48.276;14.242;2022-10-15T12:17:12;98146.59;;;12.65;100.00
39897;BME280;25567;48.276;14.242;2022-10-15T12:22:31;98156.44;;;12.64;100.00
39897;BME280;25567;48.276;14.242;2022-10-15T12:25:00;98149.78;;;12.89;100.00
39897;BME280;25567;48.276;14.242;2022-10-15T12:27:30;98144.25;;;12.96;100.00
39897;BME280;25567;48.276;14.242;2022-10-15T12:32:35;98148.16;;;12.88;100.00
39897;BME280;25567;48.276;14.242;2022-10-15T12:38:17;98150.00;;;12.88;100.00
39897;BME280;25567;48.276;14.242;2022-10-15T12:40:45;98150.00;;;12.82;100.00
39897;BME280;25567;48.276;14.242;2022-10-15T12:43:20;98146.75;;;12.80;100.00
39897;BME280;25567;48.276;14.242;2022-10-15T12:45:51;98147.31;;;12.82;100.00
39897;BME280;25567;48.276;14.242;2022-10-15T12:48:28;98150.78;;;12.83;100.00
39897;BME280;25567;48.276;14.242;2022-10-15T12:53:58;98152.44;;;12.89;100.00
39897;BME280;25567;48.276;14.242;2022-10-15T12:56:36;98148.81;;;13.00;100.00
39897;BME280;25567;48.276;14.242;2022-10-15T12:59:27;98149.19;;;13.09;100.00
39897;BME280;25567;48.276;14.242;2022-10-15T13:01:55;98150.31;;;13.18;100.00
39897;BME280;25567;48.276;14.242;2022-10-15T13:04:22;98143.69;;;13.21;100.00
39897;BME280;25567;48.276;14.242;2022-10-15T13:06:49;98142.88;;;13.21;100.00
39897;BME280;25567;48.276;14.242;2022-10-15T13:09:25;98141.88;;;13.27;100.00
39897;BME280;25567;48.276;14.242;2022-10-15T13:11:58;98144.66;;;13.37;100.00
39897;BME280;25567;48.276;14.242;2022-10-15T13:16:56;98122.44;;;13.59;100.00
39897;BME280;25567;48.276;14.242;2022-10-15T13:19:28;98123.00;;;13.66;100.00
39897;BME280;25567;48.276;14.242;2022-10-15T13:21:58;98118.59;;;13.87;100.00
39897;BME280;25567;48.276;14.242;2022-10-15T13:24:27;98125.28;;;13.90;100.00
39897;BME280;25567;48.276;14.242;2022-10-15T13:26:59;98129.91;;;14.05;100.00
39897;BME280;25567;48.276;14.242;2022-10-15T13:29:26;98127.53;;;14.13;100.00
39897;BME280;25567;48.276;14.242;2022-10-15T13:31:55;98122.25;;;14.24;100.00
39897;BME280;25567;48.276;14.242;2022-10-15T13:34:32;98124.38;;;14.27;100.00
39897;BME280;25567;48.276;14.242;2022-10-15T13:37:03;98127.69;;;14.44;100.00
39897;BME280;25567;48.276;14.242;2022-10-15T13:39:48;98123.97;;;14.56;100.00
39897;BME280;25567;48.276;14.242;2022-10-15T13:42:19;98129.06;;;14.62;100.00
39897;BME280;25567;48.276;14.242;2022-10-15T13:47:32;98123.28;;;14.86;100.00
39897;BME280;25567;48.276;14.242;2022-10-15T13:50:17;98123.03;;;15.08;100.00
39897;BME280;25567;48.276;14.242;2022-10-15T13:55:18;98127.56;;;15.02;100.00
39897;BME280;25567;48.276;14.242;2022-10-15T13:57:46;98122.78;;;15.10;100.00
39897;BME280;25567;48.276;14.242;2022-10-15T14:00:24;98129.72;;;15.06;100.00
39897;BME280;25567;48.276;14.242;2022-10-15T14:03:08;98128.91;;;15.05;100.00
39897;BME280;25567;48.276;14.242;2022-10-15T14:05:39;98129.16;;;14.93;100.00
39897;BME280;25567;48.276;14.242;2022-10-15T14:08:14;98125.41;;;14.89;100.00
39897;BME280;25567;48.276;14.242;2022-10-15T14:10:40;98136.13;;;15.15;100.00
39897;BME280;25567;48.276;14.242;2022-10-15T14:13:09;98134.78;;;15.07;100.00
39897;BME280;25567;48.276;14.242;2022-10-15T14:15:43;98131.56;;;15.10;100.00
39897;BME280;25567;48.276;14.242;2022-10-15T14:18:11;98138.81;;;15.20;100.00
39897;BME280;25567;48.276;14.242;2022-10-15T14:20:45;98136.66;;;15.07;100.00
39897;BME280;25567;48.276;14.242;2022-10-15T14:23:15;98132.09;;;14.97;100.00
39897;BME280;25567;48.276;14.242;2022-10-15T14:25:51;98131.31;;;15.01;100.00